createdAt,value
2022-12-12T00:01:30.210Z,57.10
2022-12-12T00:03:59.099Z,56.13
2022-12-12T00:06:29.529Z,61.97
2022-12-12T00:08:57.907Z,60.37
2022-12-12T00:11:27.298Z,61.77
2022-12-12T00:13:55.699Z,55.67
2022-12-12T00:16:25.613Z,60.63
2022-12-12T00:18:54.303Z,53.70
2022-12-12T00:21:26.316Z,56.90
2022-12-12T00:23:56.326Z,61.97
2022-12-12T00:26:27.419Z,55.63
2022-12-12T00:28:56.159Z,54.17
2022-12-12T00:31:24.689Z,54.83
2022-12-12T00:33:53.184Z,62.37
2022-12-12T00:36:24.781Z,56.17
2022-12-12T00:38:55.950Z,53.97
2022-12-12T00:41:24.728Z,53.63
2022-12-12T00:43:53.173Z,55.57
2022-12-12T00:46:24.085Z,59.17
2022-12-12T00:48:58.525Z,57.40
2022-12-12T00:51:29.647Z,54.87
2022-12-12T00:54:00.837Z,54.30
2022-12-12T00:56:30.894Z,54.10
2022-12-12T00:58:59.525Z,54.60
2022-12-12T01:01:30.587Z,54.53
2022-12-12T01:03:59.855Z,50.23
2022-12-12T01:06:28.951Z,55.23
2022-12-12T01:08:59.056Z,53.40
2022-12-12T01:11:27.769Z,58.13
2022-12-12T01:13:56.778Z,50.10
2022-12-12T01:16:26.099Z,55.50
2022-12-12T01:18:54.565Z,53.60
2022-12-12T01:21:23.324Z,53.10
2022-12-12T01:23:51.959Z,55.57
2022-12-12T01:26:24.262Z,55.17
2022-12-12T01:28:53.780Z,60.50
2022-12-12T01:31:22.840Z,56.87
2022-12-12T01:33:51.232Z,55.43
2022-12-12T01:36:23.486Z,57.10
2022-12-12T01:38:56.891Z,57.73
2022-12-12T01:41:27.391Z,50.50
2022-12-12T01:43:56.187Z,60.17
2022-12-12T01:46:52.131Z,57.17
2022-12-12T01:49:25.847Z,54.00
2022-12-12T01:51:58.887Z,50.10
2022-12-12T01:54:31.749Z,45.90
2022-12-12T01:57:05.218Z,49.30
2022-12-12T01:59:35.818Z,50.83
2022-12-12T02:02:04.300Z,48.70
2022-12-12T02:04:33.007Z,48.73
2022-12-12T02:07:01.572Z,44.07
2022-12-12T02:09:29.951Z,48.67
2022-12-12T02:12:00.551Z,43.27
2022-12-12T02:14:33.188Z,46.70
2022-12-12T02:17:25.445Z,45.33
2022-12-12T02:20:45.746Z,49.60
2022-12-12T02:23:55.270Z,46.17
2022-12-12T02:27:20.792Z,48.70
2022-12-12T02:30:13.405Z,45.20
2022-12-12T02:33:19.908Z,47.00
2022-12-12T02:36:04.266Z,46.70
2022-12-12T02:38:46.632Z,47.50
2022-12-12T02:41:22.144Z,49.93
2022-12-12T02:44:06.342Z,44.17
2022-12-12T02:46:42.241Z,52.17
2022-12-12T02:49:17.961Z,53.00
2022-12-12T02:51:47.388Z,47.13
2022-12-12T02:54:17.932Z,47.10
2022-12-12T02:56:51.713Z,46.87
2022-12-12T02:59:27.681Z,50.50
2022-12-12T03:02:33.076Z,48.73
2022-12-12T03:05:43.985Z,46.90
2022-12-12T03:08:29.309Z,48.87
2022-12-12T03:11:02.350Z,49.43
2022-12-12T03:13:43.618Z,58.87
2022-12-12T03:16:26.459Z,48.70
2022-12-12T03:19:00.195Z,45.90
2022-12-12T03:21:40.826Z,51.17
2022-12-12T03:24:18.051Z,53.80
2022-12-12T03:26:52.202Z,48.47
2022-12-12T03:29:27.324Z,48.40
2022-12-12T03:32:02.010Z,46.30
2022-12-12T03:34:37.565Z,48.53
2022-12-12T03:37:12.900Z,44.50
2022-12-12T03:39:47.526Z,45.13
2022-12-12T03:42:22.176Z,45.70
2022-12-12T03:44:54.599Z,43.50
2022-12-12T03:47:28.913Z,50.63
2022-12-12T03:50:03.606Z,50.57
2022-12-12T03:52:38.966Z,55.63
2022-12-12T03:55:14.583Z,49.67
2022-12-12T03:57:52.108Z,48.93
2022-12-12T04:00:21.064Z,56.60
2022-12-12T04:02:56.332Z,51.97
2022-12-12T04:05:29.871Z,54.37
2022-12-12T04:08:09.032Z,43.83
2022-12-12T04:11:05.208Z,46.47
2022-12-12T04:13:44.471Z,45.67
2022-12-12T04:16:16.795Z,46.87
2022-12-12T04:18:54.538Z,46.03
2022-12-12T04:21:54.135Z,48.07
2022-12-12T04:24:31.401Z,42.77
2022-12-12T04:27:08.524Z,46.80
2022-12-12T04:29:42.737Z,44.13
2022-12-12T04:32:18.438Z,41.50
2022-12-12T04:34:53.430Z,45.93
2022-12-12T04:37:33.997Z,49.97
2022-12-12T04:40:09.235Z,42.07
2022-12-12T04:42:44.008Z,41.63
2022-12-12T04:45:16.767Z,43.20
2022-12-12T04:47:49.521Z,41.87
2022-12-12T04:50:18.591Z,39.43
2022-12-12T04:52:51.698Z,40.20
2022-12-12T04:55:25.120Z,43.23
2022-12-12T04:57:55.555Z,41.07
2022-12-12T05:00:25.519Z,41.80
2022-12-12T05:03:03.689Z,45.33
2022-12-12T05:05:41.491Z,45.13
2022-12-12T05:08:16.054Z,41.03
2022-12-12T05:10:48.244Z,39.97
2022-12-12T05:13:19.819Z,42.80
2022-12-12T05:15:49.910Z,39.67
2022-12-12T05:18:18.755Z,40.27
2022-12-12T05:20:47.093Z,39.97
2022-12-12T05:23:15.624Z,38.80
2022-12-12T05:25:45.265Z,40.73
2022-12-12T05:28:13.568Z,40.27
2022-12-12T05:30:42.048Z,40.63
2022-12-12T05:33:10.291Z,38.63
2022-12-12T05:35:38.580Z,37.23
2022-12-12T05:38:06.828Z,38.87
2022-12-12T05:40:44.934Z,37.77
2022-12-12T05:43:14.614Z,40.40
2022-12-12T05:45:43.026Z,36.50
2022-12-12T05:48:11.344Z,37.17
2022-12-12T05:50:39.555Z,38.63
2022-12-12T05:53:08.094Z,38.77
2022-12-12T05:55:36.938Z,38.50
2022-12-12T05:58:05.236Z,39.30
2022-12-12T06:00:34.922Z,40.53
2022-12-12T06:03:03.172Z,35.27
2022-12-12T06:05:31.440Z,28.10
2022-12-12T06:07:59.801Z,27.57
2022-12-12T06:10:28.120Z,28.93
2022-12-12T06:12:56.362Z,34.00
2022-12-12T06:15:24.925Z,31.73
2022-12-12T06:17:56.980Z,35.57
2022-12-12T06:20:25.440Z,36.13
2022-12-12T06:22:54.140Z,34.13
2022-12-12T06:25:22.595Z,34.83
2022-12-12T06:27:51.040Z,34.50
2022-12-12T06:30:19.560Z,35.03
2022-12-12T06:32:47.890Z,33.77
2022-12-12T06:35:17.705Z,27.07
2022-12-12T06:37:45.930Z,29.73
2022-12-12T06:40:14.807Z,25.77
2022-12-12T06:42:48.253Z,24.77
2022-12-12T06:45:17.401Z,26.03
2022-12-12T06:47:45.715Z,27.77
2022-12-12T06:50:15.832Z,27.37
2022-12-12T06:52:47.741Z,31.27
2022-12-12T06:55:16.121Z,32.27
2022-12-12T06:57:44.451Z,31.67
2022-12-12T07:00:13.981Z,33.07
2022-12-12T07:02:42.360Z,38.13
2022-12-12T07:05:11.382Z,41.83
2022-12-12T07:07:39.830Z,41.37
2022-12-12T07:10:10.333Z,40.43
2022-12-12T07:12:39.700Z,39.83
2022-12-12T07:15:08.893Z,45.03
2022-12-12T07:17:37.251Z,44.20
2022-12-12T07:20:06.234Z,42.40
2022-12-12T07:22:34.679Z,39.43
2022-12-12T07:25:02.949Z,42.20
2022-12-12T07:27:32.934Z,43.40
2022-12-12T07:30:01.200Z,45.47
2022-12-12T07:32:29.432Z,40.40
2022-12-12T07:34:58.380Z,42.83
2022-12-12T07:37:27.015Z,45.33
2022-12-12T07:39:55.340Z,43.13
2022-12-12T07:42:23.605Z,40.80
2022-12-12T07:44:53.315Z,43.60
2022-12-12T07:47:21.676Z,43.93
2022-12-12T07:49:50.048Z,44.87
2022-12-12T07:52:18.349Z,38.90
2022-12-12T07:54:46.586Z,41.00
2022-12-12T07:57:15.203Z,42.90
2022-12-12T07:59:43.736Z,45.87
2022-12-12T08:02:13.534Z,43.07
2022-12-12T08:04:41.926Z,39.80
2022-12-12T08:07:10.248Z,44.87
2022-12-12T08:09:38.946Z,43.13
2022-12-12T08:12:08.237Z,40.17
2022-12-12T08:14:38.077Z,43.33
2022-12-12T08:17:06.602Z,40.67
2022-12-12T08:19:36.279Z,43.93
2022-12-12T08:22:04.728Z,40.07
2022-12-12T08:24:33.055Z,41.20
2022-12-12T08:27:01.832Z,41.43
2022-12-12T08:29:30.176Z,41.37
2022-12-12T08:31:58.674Z,36.57
2022-12-12T08:34:27.379Z,37.23
2022-12-12T08:36:57.055Z,35.00
2022-12-12T08:39:25.378Z,35.53
2022-12-12T08:41:53.726Z,30.10
2022-12-12T08:44:23.048Z,32.77
2022-12-12T08:46:51.515Z,31.73
2022-12-12T08:49:20.225Z,30.23
2022-12-12T08:51:48.677Z,30.33
2022-12-12T08:54:18.900Z,31.83
2022-12-12T08:56:47.568Z,29.43
2022-12-12T08:59:16.237Z,29.67
2022-12-12T09:01:44.769Z,28.10
2022-12-12T09:04:14.689Z,31.33
2022-12-12T09:06:43.678Z,32.70
2022-12-12T09:09:11.993Z,33.43
2022-12-12T09:11:41.727Z,33.63
2022-12-12T09:14:10.719Z,32.47
2022-12-12T09:16:39.066Z,33.57
2022-12-12T09:19:07.515Z,36.17
2022-12-12T09:21:35.978Z,37.37
2022-12-12T09:24:08.024Z,36.17
2022-12-12T09:26:36.873Z,40.77
2022-12-12T09:29:07.045Z,43.57
2022-12-12T09:31:35.516Z,37.23
2022-12-12T09:34:03.961Z,37.33
2022-12-12T09:36:32.329Z,38.83
2022-12-12T09:39:00.658Z,44.93
2022-12-12T09:41:30.808Z,36.53
2022-12-12T09:44:03.588Z,41.73
2022-12-12T09:46:38.620Z,45.03
2022-12-12T09:49:15.928Z,41.03
2022-12-12T09:51:48.762Z,45.43
2022-12-12T09:54:20.581Z,40.03
2022-12-12T09:57:12.231Z,38.97
2022-12-12T09:59:45.732Z,43.17
2022-12-12T10:02:38.747Z,39.93
2022-12-12T10:05:21.694Z,42.00
2022-12-12T10:08:00.564Z,42.57
2022-12-12T10:10:33.086Z,41.03
2022-12-12T10:13:06.199Z,40.37
2022-12-12T10:15:40.059Z,45.73
2022-12-12T10:18:17.645Z,39.80
2022-12-12T10:20:51.634Z,42.57
2022-12-12T10:23:30.464Z,43.37
2022-12-12T10:26:03.305Z,48.53
2022-12-12T10:28:33.843Z,48.00
2022-12-12T10:31:30.237Z,42.87
2022-12-12T10:34:23.541Z,46.40
2022-12-12T10:37:11.047Z,43.50
2022-12-12T10:39:51.027Z,47.33
2022-12-12T10:42:28.084Z,47.63
2022-12-12T10:45:19.420Z,52.07
2022-12-12T10:47:49.036Z,48.23
2022-12-12T10:50:28.534Z,43.60
2022-12-12T10:52:56.888Z,47.90
2022-12-12T10:55:41.877Z,48.33
2022-12-12T10:58:10.283Z,47.97
2022-12-12T11:00:41.798Z,44.87
2022-12-12T11:03:22.665Z,43.03
2022-12-12T11:05:52.628Z,49.03
2022-12-12T11:08:27.175Z,43.90
2022-12-12T11:11:08.641Z,43.30
2022-12-12T11:13:50.313Z,47.43
2022-12-12T11:16:22.131Z,49.03
2022-12-12T11:19:05.054Z,45.60
2022-12-12T11:21:37.492Z,44.10
2022-12-12T11:24:10.649Z,45.27
2022-12-12T11:26:46.856Z,47.77
2022-12-12T11:29:35.510Z,47.10
2022-12-12T11:32:05.024Z,45.30
2022-12-12T11:34:36.516Z,41.90
2022-12-12T11:37:06.271Z,44.07
2022-12-12T11:39:43.663Z,48.93
2022-12-12T11:42:30.372Z,40.93
2022-12-12T11:45:02.626Z,42.03
2022-12-12T11:47:38.669Z,46.80
2022-12-12T11:50:23.779Z,40.03
2022-12-12T11:52:56.765Z,41.17
2022-12-12T11:55:37.643Z,36.20
2022-12-12T11:58:20.516Z,41.87
2022-12-12T12:00:59.159Z,36.60
2022-12-12T12:03:40.067Z,39.00
2022-12-12T12:06:37.817Z,37.77
2022-12-12T12:09:24.493Z,42.50
2022-12-12T12:12:05.284Z,37.17
2022-12-12T12:15:17.669Z,38.20
2022-12-12T12:18:13.028Z,41.30
2022-12-12T12:21:07.411Z,34.17
2022-12-12T12:23:50.271Z,34.93
2022-12-12T12:26:41.231Z,38.20
2022-12-12T12:29:33.961Z,35.33
2022-12-12T12:32:12.599Z,36.97
2022-12-12T12:34:56.255Z,34.57
2022-12-12T12:37:43.521Z,34.13
2022-12-12T12:40:28.216Z,35.83
2022-12-12T12:43:18.259Z,29.73
2022-12-12T12:45:54.042Z,31.13
2022-12-12T12:48:29.711Z,31.17
2022-12-12T12:51:07.179Z,32.33
2022-12-12T12:53:41.877Z,31.13
2022-12-12T12:56:26.227Z,28.70
2022-12-12T12:59:01.564Z,27.93
2022-12-12T13:01:36.461Z,30.37
2022-12-12T13:04:15.462Z,27.27
2022-12-12T13:06:49.368Z,28.87
2022-12-12T13:09:29.673Z,29.00
2022-12-12T13:12:05.606Z,24.53
2022-12-12T13:14:49.119Z,27.50
2022-12-12T13:17:21.783Z,27.27
2022-12-12T13:19:53.486Z,29.23
2022-12-12T13:22:34.558Z,28.70
2022-12-12T13:25:14.983Z,29.70
2022-12-12T13:27:47.940Z,30.13
2022-12-12T13:30:24.184Z,26.80
2022-12-12T13:33:12.094Z,27.20
2022-12-12T13:35:47.006Z,30.30
2022-12-12T13:38:21.702Z,31.27
2022-12-12T13:40:58.670Z,28.63
2022-12-12T13:43:32.035Z,29.80
2022-12-12T13:46:40.270Z,30.50
2022-12-12T13:49:28.435Z,31.80
2022-12-12T13:52:27.880Z,27.03
2022-12-12T13:55:22.661Z,31.50
2022-12-12T13:58:35.534Z,27.13
2022-12-12T14:01:32.043Z,27.60
2022-12-12T14:04:03.707Z,28.83
2022-12-12T14:06:32.793Z,30.63
2022-12-12T14:09:01.422Z,26.30
2022-12-12T14:11:34.901Z,29.03
2022-12-12T14:14:17.822Z,31.10
2022-12-12T14:16:56.617Z,27.37
2022-12-12T14:19:37.802Z,26.50
2022-12-12T14:22:06.123Z,28.97
2022-12-12T14:25:07.206Z,29.63
2022-12-12T14:28:15.777Z,29.93
2022-12-12T14:30:50.426Z,27.13
2022-12-12T14:34:14.137Z,24.77
2022-12-12T14:37:22.913Z,27.03
2022-12-12T14:40:14.864Z,26.97
2022-12-12T14:43:19.385Z,27.10
2022-12-12T14:45:40.895Z,25.73
2022-12-12T14:48:22.843Z,27.33
2022-12-12T14:51:00.234Z,26.50
2022-12-12T14:53:35.442Z,26.93
2022-12-12T14:56:09.588Z,25.20
2022-12-12T14:58:42.061Z,24.23
2022-12-12T15:01:10.925Z,25.53
2022-12-12T15:03:44.033Z,25.10
2022-12-12T15:06:37.011Z,24.20
2022-12-12T15:09:17.846Z,27.60
2022-12-12T15:11:47.191Z,26.13
2022-12-12T15:14:26.950Z,24.50
2022-12-12T15:17:01.760Z,25.03
2022-12-12T15:19:35.655Z,25.47
2022-12-12T15:22:05.783Z,24.53
2022-12-12T15:24:40.643Z,24.60
2022-12-12T15:27:09.187Z,25.30
2022-12-12T15:29:39.216Z,23.70
2022-12-12T15:32:17.898Z,26.83
2022-12-12T15:34:49.920Z,28.43
2022-12-12T15:37:26.140Z,27.90
2022-12-12T15:40:21.094Z,26.37
2022-12-12T15:42:55.492Z,27.47
2022-12-12T15:45:28.986Z,26.30
2022-12-12T15:47:58.018Z,30.23
2022-12-12T15:50:31.083Z,29.40
2022-12-12T15:53:07.842Z,31.87
2022-12-12T15:55:37.914Z,31.00
2022-12-12T15:58:06.302Z,31.63
2022-12-12T16:00:40.470Z,35.47
2022-12-12T16:03:23.466Z,33.60
2022-12-12T16:06:06.506Z,31.40
2022-12-12T16:08:48.105Z,33.13
2022-12-12T16:11:43.092Z,33.10
2022-12-12T16:14:42.793Z,31.53
2022-12-12T16:17:14.714Z,31.10
2022-12-12T16:19:56.495Z,29.47
2022-12-12T16:22:35.753Z,32.20
2022-12-12T16:25:19.935Z,33.43
2022-12-12T16:27:57.706Z,29.70
2022-12-12T16:30:27.275Z,31.43
2022-12-12T16:32:56.039Z,31.67
2022-12-12T16:35:26.056Z,32.97
2022-12-12T16:37:54.445Z,31.60
2022-12-12T16:40:23.377Z,32.57
2022-12-12T16:42:56.974Z,27.70
2022-12-12T16:45:25.384Z,34.17
2022-12-12T16:47:53.895Z,34.77
2022-12-12T16:50:22.473Z,33.80
2022-12-12T16:52:50.775Z,33.17
2022-12-12T16:55:24.599Z,35.77
2022-12-12T16:57:54.276Z,32.53
2022-12-12T17:00:22.838Z,35.17
2022-12-12T17:02:51.134Z,34.27
2022-12-12T17:05:23.743Z,37.87
2022-12-12T17:07:53.439Z,35.87
2022-12-12T17:10:24.587Z,35.30
2022-12-12T17:12:55.475Z,36.50
2022-12-12T17:15:27.662Z,40.13
2022-12-12T17:17:56.861Z,37.00
2022-12-12T17:20:26.261Z,41.00
2022-12-12T17:22:55.601Z,37.97
2022-12-12T17:25:24.832Z,37.73
2022-12-12T17:27:54.734Z,41.63
2022-12-12T17:30:23.356Z,40.70
2022-12-12T17:35:37.802Z,42.37
2022-12-12T17:38:09.182Z,40.23
2022-12-12T17:40:44.387Z,40.27
2022-12-12T17:43:14.192Z,41.90
2022-12-12T17:45:42.539Z,44.13
2022-12-12T17:48:10.959Z,45.07
2022-12-12T17:50:41.771Z,42.57
2022-12-12T17:53:10.606Z,39.53
2022-12-12T17:55:51.715Z,44.07
2022-12-12T17:58:28.001Z,45.70
2022-12-12T18:00:57.985Z,45.87
2022-12-12T18:03:26.421Z,41.63
2022-12-12T18:05:54.671Z,49.50
2022-12-12T18:08:23.017Z,44.20
2022-12-12T18:10:51.366Z,42.03
2022-12-12T18:13:21.090Z,45.93
2022-12-12T18:15:56.269Z,45.23
2022-12-12T18:18:26.347Z,44.17
2022-12-12T18:20:54.778Z,48.27
2022-12-12T18:23:23.375Z,44.87
2022-12-12T18:25:51.595Z,49.30
2022-12-12T18:28:21.271Z,47.23
2022-12-12T18:30:51.054Z,43.07
2022-12-12T18:33:19.422Z,46.77
2022-12-12T18:35:47.672Z,43.10
2022-12-12T18:38:16.942Z,48.53
2022-12-12T18:40:45.244Z,47.50
2022-12-12T18:43:13.490Z,49.50
2022-12-12T18:45:43.093Z,40.67
2022-12-12T18:48:11.480Z,44.80
2022-12-12T18:50:39.778Z,48.33
2022-12-12T18:53:08.630Z,47.93
2022-12-12T18:55:41.838Z,45.07
2022-12-12T18:58:10.933Z,43.97
2022-12-12T19:00:40.302Z,44.70
2022-12-12T19:03:10.505Z,42.93
2022-12-12T19:05:43.080Z,49.03
2022-12-12T19:08:14.658Z,50.13
2022-12-12T19:10:42.874Z,52.60
2022-12-12T19:13:11.231Z,54.20
2022-12-12T19:15:40.683Z,48.63
2022-12-12T19:18:10.644Z,55.47
2022-12-12T19:20:38.972Z,50.33
2022-12-12T19:23:07.285Z,51.30
2022-12-12T19:25:42.602Z,56.40
2022-12-12T19:28:12.362Z,52.23
2022-12-12T19:30:44.080Z,57.87
2022-12-12T19:33:13.792Z,55.90
2022-12-12T19:35:42.104Z,55.03
2022-12-12T19:38:10.495Z,51.17
2022-12-12T19:40:38.896Z,55.43
2022-12-12T19:43:07.168Z,53.03
2022-12-12T19:45:35.566Z,55.73
2022-12-12T19:48:03.848Z,56.27
2022-12-12T19:50:33.527Z,52.73
2022-12-12T19:53:01.821Z,50.67
2022-12-12T19:55:30.167Z,57.80
2022-12-12T19:58:00.486Z,60.17
2022-12-12T20:00:28.853Z,63.50
2022-12-12T20:02:58.318Z,58.90
2022-12-12T20:05:26.695Z,59.80
2022-12-12T20:07:57.825Z,62.93
2022-12-12T20:10:26.084Z,59.40
2022-12-12T20:12:58.545Z,63.07
2022-12-12T20:15:27.524Z,53.87
2022-12-12T20:18:00.189Z,56.53
2022-12-12T20:20:28.794Z,49.93
2022-12-12T20:22:58.534Z,58.00
2022-12-12T20:25:26.891Z,55.77
2022-12-12T20:27:55.203Z,55.30
2022-12-12T20:30:23.425Z,53.17
2022-12-12T20:32:52.080Z,57.20
2022-12-12T20:35:20.399Z,60.07
2022-12-12T20:37:48.891Z,65.90
2022-12-12T20:40:18.803Z,56.93
2022-12-12T20:42:54.980Z,57.87
2022-12-12T20:45:25.541Z,62.33
2022-12-12T20:47:53.963Z,68.23
2022-12-12T20:50:22.387Z,69.37
2022-12-12T20:52:50.726Z,60.77
2022-12-12T20:55:20.338Z,71.73
2022-12-12T20:57:48.606Z,57.87
2022-12-12T21:00:17.534Z,62.13
2022-12-12T21:02:45.812Z,74.27
2022-12-12T21:05:14.462Z,72.00
2022-12-12T21:07:43.058Z,73.13
2022-12-12T21:10:11.531Z,66.03
2022-12-12T21:12:41.282Z,67.73
2022-12-12T21:15:10.743Z,62.37
2022-12-12T21:17:39.072Z,67.30
2022-12-12T21:20:09.011Z,73.40
2022-12-12T21:22:37.311Z,71.33
2022-12-12T21:25:06.366Z,69.20
2022-12-12T21:27:34.646Z,73.77
2022-12-12T21:30:05.654Z,78.63
2022-12-12T21:32:34.097Z,80.20
2022-12-12T21:35:02.365Z,73.87
2022-12-12T21:37:31.916Z,67.00
2022-12-12T21:40:02.923Z,76.67
2022-12-12T21:42:31.359Z,80.17
2022-12-12T21:44:59.988Z,75.03
2022-12-12T21:47:29.789Z,74.13
2022-12-12T21:49:58.087Z,82.60
2022-12-12T21:52:26.314Z,74.80
2022-12-12T21:54:55.008Z,77.53
2022-12-12T21:57:25.089Z,79.07
2022-12-12T21:59:53.672Z,78.03
2022-12-12T22:02:22.033Z,78.47
2022-12-12T22:04:51.746Z,83.93
2022-12-12T22:07:20.878Z,79.27
2022-12-12T22:09:57.441Z,88.97
2022-12-12T22:12:37.491Z,90.83
2022-12-12T22:15:06.993Z,89.60
2022-12-12T22:17:35.274Z,91.70
2022-12-12T22:20:05.490Z,92.17
2022-12-12T22:22:33.904Z,91.73
2022-12-12T22:25:02.190Z,103.40
2022-12-12T22:27:31.047Z,98.47
2022-12-12T22:29:59.379Z,95.07
2022-12-12T22:32:29.360Z,104.37
2022-12-12T22:34:58.567Z,98.27
2022-12-12T22:37:28.237Z,105.77
2022-12-12T22:39:56.534Z,96.83
2022-12-12T22:42:24.868Z,97.30
2022-12-12T22:44:53.486Z,95.07
2022-12-12T22:47:23.796Z,94.20
2022-12-12T22:49:52.952Z,89.97
2022-12-12T22:52:21.232Z,101.00
2022-12-12T22:54:50.855Z,98.77
2022-12-12T22:57:19.227Z,102.90
2022-12-12T22:59:47.627Z,98.13
2022-12-12T23:02:21.526Z,103.70
2022-12-12T23:04:53.137Z,93.43
2022-12-12T23:07:21.527Z,90.20
2022-12-12T23:09:54.254Z,94.57
2022-12-12T23:12:23.288Z,93.37
2022-12-12T23:14:51.499Z,104.47
2022-12-12T23:17:19.880Z,104.53
2022-12-12T23:19:48.367Z,102.87
2022-12-12T23:22:16.593Z,94.77
2022-12-12T23:24:45.111Z,97.47
2022-12-12T23:27:14.776Z,97.50
2022-12-12T23:29:43.611Z,104.20
2022-12-12T23:32:12.208Z,101.03
2022-12-12T23:34:40.838Z,97.30
2022-12-12T23:37:09.459Z,93.57
2022-12-12T23:39:37.932Z,96.43
2022-12-12T23:42:06.398Z,105.87
2022-12-12T23:44:36.114Z,99.90
2022-12-12T23:47:04.373Z,100.13
2022-12-12T23:49:32.613Z,99.03
2022-12-12T23:52:02.421Z,97.30
2022-12-12T23:54:33.689Z,101.40
2022-12-12T23:57:03.308Z,88.40
2022-12-12T23:59:32.202Z,105.33
